Terminal Aerodrome Forecast
Issued by NWS Mobile, AL

Current Version | Previous Version | Text Only | Print | Product List | Glossary On
Versions: 1 2 3 4 5 6 7 8 9 10 11 12 13 14 15 16 17 18 19 20 21 22 23 24
000
FTUS44 KMOB 261726
TAFPNS
TAF
KPNS 261726Z 2618/2718 16006KT P6SM VCSH SCT030 SCT180
     FM270000 VRB03KT P6SM SCT030
      TEMPO 2709/2712 5SM BR FEW030
     FM271500 36005KT P6SM SCT030=

USA.gov is the U.S. government's official web portal to all federal, state and local government web resources and services.